createdAt,value
2023-01-15T00:01:32.081Z,4.75
2023-01-15T00:04:04.308Z,4.73
2023-01-15T00:06:38.109Z,4.75
2023-01-15T00:09:08.817Z,4.81
2023-01-15T00:11:38.091Z,4.79
2023-01-15T00:14:07.637Z,4.73
2023-01-15T00:16:37.462Z,4.59
2023-01-15T00:19:11.680Z,4.45
2023-01-15T00:21:40.942Z,4.39
2023-01-15T00:24:28.927Z,4.38
2023-01-15T00:27:16.351Z,4.28
2023-01-15T00:29:45.445Z,4.21
2023-01-15T00:32:14.518Z,4.22
2023-01-15T00:34:43.176Z,4.24
2023-01-15T00:37:12.186Z,4.27
2023-01-15T00:39:40.830Z,4.26
2023-01-15T00:42:11.668Z,4.22
2023-01-15T00:44:40.823Z,4.19
2023-01-15T00:47:15.332Z,4.21
2023-01-15T00:49:45.860Z,4.28
2023-01-15T00:52:15.554Z,4.31
2023-01-15T00:54:45.601Z,4.29
2023-01-15T00:57:14.879Z,4.30
2023-01-15T00:59:44.205Z,4.38
2023-01-15T01:02:13.155Z,4.47
2023-01-15T01:04:42.345Z,4.51
2023-01-15T01:07:11.143Z,4.50
2023-01-15T01:09:40.482Z,4.50
2023-01-15T01:12:09.232Z,4.58
2023-01-15T01:14:39.112Z,4.63
2023-01-15T01:17:07.771Z,4.67
2023-01-15T01:19:37.204Z,4.69
2023-01-15T01:22:05.882Z,4.70
2023-01-15T01:24:34.656Z,4.59
2023-01-15T01:27:03.844Z,4.52
2023-01-15T01:29:32.789Z,4.45
2023-01-15T01:32:02.112Z,4.38
2023-01-15T01:34:31.347Z,4.34
2023-01-15T01:37:00.399Z,4.32
2023-01-15T01:39:29.333Z,4.36
2023-01-15T01:41:58.395Z,4.34
2023-01-15T01:44:34.010Z,4.24
2023-01-15T01:47:07.664Z,4.11
2023-01-15T01:49:39.797Z,4.08
2023-01-15T01:52:16.819Z,4.01
2023-01-15T01:54:48.228Z,3.97
2023-01-15T01:57:19.352Z,3.92
2023-01-15T01:59:48.977Z,3.88
2023-01-15T02:02:22.237Z,3.88
2023-01-15T02:04:51.940Z,3.93
2023-01-15T02:07:20.817Z,3.95
2023-01-15T02:09:49.843Z,3.99
2023-01-15T02:12:51.010Z,4.08
2023-01-15T02:15:29.437Z,4.16
2023-01-15T02:17:58.079Z,4.16
2023-01-15T02:20:37.121Z,4.06
2023-01-15T02:23:32.105Z,3.91
2023-01-15T02:26:26.764Z,3.79
2023-01-15T02:28:58.900Z,3.82
2023-01-15T02:31:34.037Z,3.90
2023-01-15T02:34:27.891Z,3.92
2023-01-15T02:37:20.536Z,3.92
2023-01-15T02:39:51.917Z,4.03
2023-01-15T02:42:23.824Z,4.20
2023-01-15T02:44:55.986Z,4.21
2023-01-15T02:47:28.457Z,4.22
2023-01-15T02:50:03.019Z,4.27
2023-01-15T02:52:52.441Z,4.34
2023-01-15T02:55:27.306Z,4.37
2023-01-15T02:58:00.013Z,4.45
2023-01-15T03:00:34.881Z,4.41
2023-01-15T03:03:06.444Z,4.34
2023-01-15T03:06:06.600Z,4.37
2023-01-15T03:08:36.483Z,4.34
2023-01-15T03:11:14.806Z,4.43
2023-01-15T03:13:43.576Z,4.40
2023-01-15T03:16:36.129Z,4.43
2023-01-15T03:19:29.726Z,4.40
2023-01-15T03:22:15.689Z,4.38
2023-01-15T03:25:14.305Z,4.29
2023-01-15T03:27:42.975Z,4.25
2023-01-15T03:30:16.028Z,4.27
2023-01-15T03:32:44.802Z,4.22
2023-01-15T03:35:44.411Z,4.23
2023-01-15T03:38:14.991Z,4.20
2023-01-15T03:41:20.226Z,4.25
2023-01-15T03:44:02.724Z,4.24
2023-01-15T03:46:54.725Z,4.33
2023-01-15T03:50:01.759Z,4.40
2023-01-15T03:53:03.314Z,4.43
2023-01-15T03:55:32.331Z,4.38
2023-01-15T03:58:12.642Z,4.38
2023-01-15T04:00:56.235Z,4.41
2023-01-15T04:03:27.027Z,4.38
2023-01-15T04:05:58.101Z,4.38
2023-01-15T04:08:31.647Z,4.38
2023-01-15T04:11:03.216Z,4.44
2023-01-15T04:13:32.537Z,4.53
2023-01-15T04:16:02.058Z,4.50
2023-01-15T04:18:30.929Z,4.47
2023-01-15T04:21:00.024Z,4.49
2023-01-15T04:23:29.078Z,4.58
2023-01-15T04:25:58.009Z,4.69
2023-01-15T04:28:27.119Z,4.78
2023-01-15T04:30:58.526Z,4.87
2023-01-15T04:33:27.622Z,4.96
2023-01-15T04:36:01.034Z,5.07
2023-01-15T04:38:30.447Z,5.17
2023-01-15T04:41:21.963Z,5.24
2023-01-15T04:44:09.441Z,5.13
2023-01-15T04:46:40.853Z,5.00
2023-01-15T04:49:14.082Z,5.04
2023-01-15T04:51:43.578Z,5.05
2023-01-15T04:54:15.224Z,5.04
2023-01-15T04:56:46.771Z,4.99
2023-01-15T04:59:18.368Z,4.98
2023-01-15T05:01:58.311Z,5.01
2023-01-15T05:04:32.717Z,4.97
2023-01-15T05:07:03.642Z,4.97
2023-01-15T05:09:33.151Z,4.99
2023-01-15T05:12:02.555Z,5.03
2023-01-15T05:14:31.697Z,5.06
2023-01-15T05:17:00.660Z,5.07
2023-01-15T05:19:29.634Z,5.04
2023-01-15T05:21:58.484Z,5.07
2023-01-15T05:24:27.754Z,5.12
2023-01-15T05:26:58.810Z,5.21
2023-01-15T05:29:28.283Z,5.31
2023-01-15T05:31:57.256Z,5.40
2023-01-15T05:34:26.221Z,5.43
2023-01-15T05:36:55.472Z,5.39
2023-01-15T05:39:24.517Z,5.31
2023-01-15T05:41:54.441Z,5.27
2023-01-15T05:44:26.851Z,5.24
2023-01-15T05:46:58.791Z,5.28
2023-01-15T05:49:30.212Z,5.29
2023-01-15T05:52:01.138Z,5.27
2023-01-15T05:54:33.476Z,5.27
2023-01-15T05:57:04.519Z,5.35
2023-01-15T05:59:34.175Z,5.46
2023-01-15T06:02:03.210Z,5.62
2023-01-15T06:04:32.739Z,5.67
2023-01-15T06:07:02.319Z,5.68
2023-01-15T06:09:31.229Z,5.71
2023-01-15T06:11:59.992Z,5.75
2023-01-15T06:14:28.862Z,5.80
2023-01-15T06:16:58.232Z,5.77
2023-01-15T06:19:27.706Z,5.72
2023-01-15T06:21:56.865Z,5.71
2023-01-15T06:24:25.708Z,5.78
2023-01-15T06:26:54.689Z,5.86
2023-01-15T06:29:23.457Z,5.96
2023-01-15T06:31:52.496Z,6.04
2023-01-15T06:34:21.054Z,6.14
2023-01-15T06:36:49.912Z,6.26
2023-01-15T06:39:18.826Z,6.32
2023-01-15T06:42:06.146Z,6.40
2023-01-15T06:44:53.680Z,6.41
2023-01-15T06:47:23.663Z,6.46
2023-01-15T06:49:56.544Z,6.58
2023-01-15T06:52:28.014Z,6.66
2023-01-15T06:54:57.200Z,6.74
2023-01-15T06:57:27.099Z,6.77
2023-01-15T06:59:56.219Z,6.64
2023-01-15T07:02:25.523Z,6.47
2023-01-15T07:04:54.668Z,6.37
2023-01-15T07:07:24.102Z,6.28
2023-01-15T07:09:53.469Z,6.15
2023-01-15T07:12:23.589Z,6.12
2023-01-15T07:14:53.518Z,6.17
2023-01-15T07:17:23.188Z,6.23
2023-01-15T07:19:52.132Z,6.26
2023-01-15T07:22:21.295Z,6.20
2023-01-15T07:24:50.392Z,6.20
2023-01-15T07:27:19.695Z,6.24
2023-01-15T07:29:50.276Z,6.34
2023-01-15T07:32:20.377Z,6.43
2023-01-15T07:34:49.062Z,6.48
2023-01-15T07:37:17.937Z,6.55
2023-01-15T07:39:46.859Z,6.64
2023-01-15T07:42:34.683Z,6.73
2023-01-15T07:45:22.314Z,6.71
2023-01-15T07:48:10.287Z,6.71
2023-01-15T07:50:39.480Z,6.73
2023-01-15T07:53:08.728Z,6.80
2023-01-15T07:55:37.806Z,6.84
2023-01-15T07:58:06.905Z,6.85
2023-01-15T08:00:37.322Z,6.86
2023-01-15T08:03:07.079Z,6.92
2023-01-15T08:05:35.981Z,7.00
2023-01-15T08:08:05.812Z,7.09
2023-01-15T08:10:54.725Z,7.20
2023-01-15T08:13:42.093Z,7.27
2023-01-15T08:16:11.902Z,7.39
2023-01-15T08:18:41.205Z,7.60
2023-01-15T08:21:15.936Z,7.78
2023-01-15T08:23:46.767Z,7.94
2023-01-15T08:26:15.722Z,8.20
2023-01-15T08:28:44.516Z,8.46
2023-01-15T08:31:13.409Z,8.69
2023-01-15T08:33:42.646Z,8.83
2023-01-15T08:36:11.632Z,8.95
2023-01-15T08:38:40.276Z,9.18
2023-01-15T08:41:09.661Z,9.56
2023-01-15T08:43:38.500Z,9.86
2023-01-15T08:46:08.049Z,10.11
2023-01-15T08:48:37.258Z,10.27
2023-01-15T08:51:10.956Z,10.31
2023-01-15T08:53:40.444Z,10.52
2023-01-15T08:56:14.305Z,10.73
2023-01-15T08:58:43.940Z,11.12
2023-01-15T09:01:16.569Z,11.93
2023-01-15T09:03:47.786Z,12.67
2023-01-15T09:06:16.790Z,13.12
2023-01-15T09:08:46.396Z,13.62
2023-01-15T09:11:15.489Z,14.24
2023-01-15T09:13:47.297Z,15.16
2023-01-15T09:16:17.775Z,16.28
2023-01-15T09:18:47.785Z,17.02
2023-01-15T09:21:16.632Z,17.64
2023-01-15T09:23:46.014Z,17.73
2023-01-15T09:26:39.026Z,17.80
2023-01-15T09:29:09.485Z,17.41
2023-01-15T09:31:39.715Z,17.04
2023-01-15T09:34:09.031Z,16.60
2023-01-15T09:36:41.329Z,16.16
2023-01-15T09:39:11.234Z,15.84
2023-01-15T09:42:25.380Z,15.80
2023-01-15T09:45:10.096Z,15.94
2023-01-15T09:47:47.941Z,16.19
2023-01-15T09:50:40.179Z,16.33
2023-01-15T09:53:36.340Z,17.29
2023-01-15T09:56:06.559Z,17.46
2023-01-15T09:58:41.242Z,17.11
2023-01-15T10:01:20.176Z,16.77
2023-01-15T10:04:02.850Z,16.40
2023-01-15T10:07:20.113Z,16.03
2023-01-15T10:10:07.194Z,15.44
2023-01-15T10:12:41.996Z,15.16
2023-01-15T10:15:14.907Z,14.91
2023-01-15T10:17:51.431Z,14.69
2023-01-15T10:20:45.406Z,14.36
2023-01-15T10:23:41.109Z,13.91
2023-01-15T10:26:18.850Z,13.56
2023-01-15T10:29:18.706Z,13.42
2023-01-15T10:31:52.970Z,13.41
2023-01-15T10:34:30.588Z,13.59
2023-01-15T10:37:04.752Z,13.68
2023-01-15T10:39:33.728Z,13.91
2023-01-15T10:42:31.120Z,14.26
2023-01-15T10:45:15.746Z,13.92
2023-01-15T10:47:50.052Z,13.71
2023-01-15T10:50:27.798Z,13.49
2023-01-15T10:53:00.465Z,13.39
2023-01-15T10:55:59.219Z,13.35
2023-01-15T10:58:38.406Z,13.29
2023-01-15T11:01:17.129Z,13.33
2023-01-15T11:03:47.487Z,13.37
2023-01-15T11:06:22.207Z,13.37
2023-01-15T11:09:09.087Z,13.33
2023-01-15T11:12:01.504Z,13.28
2023-01-15T11:14:58.872Z,13.34
2023-01-15T11:17:57.127Z,13.98
2023-01-15T11:20:28.471Z,15.94
2023-01-15T11:23:10.806Z,16.92
2023-01-15T11:25:50.779Z,17.94
2023-01-15T11:28:40.771Z,17.46
2023-01-15T11:31:12.021Z,17.03
2023-01-15T11:33:44.638Z,16.89
2023-01-15T11:36:23.268Z,16.63
2023-01-15T11:38:53.415Z,16.16
2023-01-15T11:41:23.147Z,15.81
2023-01-15T11:44:17.036Z,15.85
2023-01-15T11:47:14.631Z,16.06
2023-01-15T11:50:13.473Z,17.69
2023-01-15T11:52:57.726Z,18.08
2023-01-15T11:55:29.127Z,17.37
2023-01-15T11:57:58.998Z,16.79
2023-01-15T12:00:33.306Z,16.63
2023-01-15T12:03:15.429Z,17.92
2023-01-15T12:05:55.008Z,20.62
2023-01-15T12:09:14.110Z,21.13
2023-01-15T12:12:01.886Z,20.50
2023-01-15T12:14:46.245Z,19.89
2023-01-15T12:17:28.790Z,19.15
2023-01-15T12:20:07.451Z,18.55
2023-01-15T12:22:52.546Z,18.03
2023-01-15T12:25:44.626Z,18.19
2023-01-15T12:28:19.808Z,18.17
2023-01-15T12:31:20.339Z,18.05
2023-01-15T12:34:02.165Z,18.26
2023-01-15T12:39:42.320Z,18.11
2023-01-15T12:42:36.957Z,18.33
2023-01-15T12:45:29.485Z,18.97
2023-01-15T12:48:13.014Z,19.06
2023-01-15T12:50:49.420Z,19.85
2023-01-15T12:53:28.366Z,20.56
2023-01-15T12:56:18.725Z,20.25
2023-01-15T12:58:52.820Z,19.90
2023-01-15T13:01:29.825Z,20.74
2023-01-15T13:04:18.047Z,22.39
2023-01-15T13:06:56.909Z,23.07
2023-01-15T13:09:43.816Z,22.24
2023-01-15T13:12:17.387Z,21.29
2023-01-15T13:14:47.379Z,20.53
2023-01-15T13:17:31.624Z,19.57
2023-01-15T13:20:24.119Z,18.86
2023-01-15T13:23:05.305Z,18.08
2023-01-15T13:25:45.534Z,17.54
2023-01-15T13:28:42.346Z,17.09
2023-01-15T13:31:24.318Z,16.56
2023-01-15T13:33:57.876Z,16.17
2023-01-15T13:36:39.228Z,15.83
2023-01-15T13:39:19.201Z,15.46
2023-01-15T13:42:11.984Z,15.28
2023-01-15T13:44:54.058Z,15.08
2023-01-15T13:47:29.407Z,14.93
2023-01-15T13:50:17.396Z,14.77
2023-01-15T13:52:47.636Z,14.57
2023-01-15T13:55:18.477Z,14.46
2023-01-15T13:57:50.142Z,14.39
2023-01-15T14:00:38.695Z,14.27
2023-01-15T14:03:29.909Z,14.09
2023-01-15T14:06:10.244Z,13.93
2023-01-15T14:08:45.331Z,13.83
2023-01-15T14:11:52.760Z,13.79
2023-01-15T14:14:40.064Z,13.65
2023-01-15T14:17:21.136Z,13.57
2023-01-15T14:20:14.932Z,13.56
2023-01-15T14:23:10.679Z,13.54
2023-01-15T14:26:21.586Z,13.52
2023-01-15T14:29:03.092Z,13.43
2023-01-15T14:31:58.854Z,13.40
2023-01-15T14:34:31.294Z,13.36
2023-01-15T14:37:17.560Z,13.42
2023-01-15T14:39:58.984Z,13.44
2023-01-15T14:42:57.193Z,13.39
2023-01-15T14:45:37.245Z,13.36
2023-01-15T14:48:19.438Z,13.41
2023-01-15T14:50:50.547Z,13.40
2023-01-15T14:53:31.549Z,13.36
2023-01-15T14:56:36.933Z,13.35
2023-01-15T15:00:03.662Z,13.33
2023-01-15T15:02:39.608Z,13.32
2023-01-15T15:05:18.395Z,13.31
2023-01-15T15:07:53.792Z,13.30
2023-01-15T15:10:31.999Z,13.30
2023-01-15T15:13:28.421Z,13.32
2023-01-15T15:16:00.915Z,13.25
2023-01-15T15:18:40.044Z,13.21
2023-01-15T15:21:23.015Z,13.21
2023-01-15T15:24:06.459Z,13.22
2023-01-15T15:26:37.559Z,13.25
2023-01-15T15:29:14.981Z,13.25
2023-01-15T15:31:47.101Z,13.21
2023-01-15T15:34:26.479Z,13.26
2023-01-15T15:36:58.965Z,13.23
2023-01-15T15:39:51.418Z,13.22
2023-01-15T15:42:48.275Z,13.16
2023-01-15T15:45:47.986Z,13.12
2023-01-15T15:48:41.901Z,13.11
2023-01-15T15:51:32.543Z,13.10
2023-01-15T15:54:12.420Z,13.04
2023-01-15T15:56:48.716Z,13.04
2023-01-15T15:59:29.047Z,13.02
2023-01-15T16:02:08.611Z,13.03
2023-01-15T16:04:38.622Z,13.00
2023-01-15T16:07:21.339Z,12.96
2023-01-15T16:09:54.684Z,12.88
2023-01-15T16:12:25.697Z,12.91
2023-01-15T16:14:56.928Z,12.94
2023-01-15T16:17:30.073Z,12.99
2023-01-15T16:20:00.424Z,12.95
2023-01-15T16:22:29.500Z,12.92
2023-01-15T16:24:59.490Z,12.93
2023-01-15T16:27:36.311Z,12.92
2023-01-15T16:30:06.877Z,12.86
2023-01-15T16:32:37.386Z,12.87
2023-01-15T16:35:19.812Z,12.82
2023-01-15T16:37:55.019Z,12.76
2023-01-15T16:40:34.178Z,12.73
2023-01-15T16:43:06.917Z,12.72
2023-01-15T16:45:38.785Z,12.77
2023-01-15T16:48:30.458Z,12.81
2023-01-15T16:51:00.432Z,12.76
2023-01-15T16:53:41.185Z,12.74
2023-01-15T16:56:48.804Z,12.69
2023-01-15T16:59:42.308Z,12.64
2023-01-15T17:02:15.636Z,12.63
2023-01-15T17:04:46.737Z,12.63
2023-01-15T17:07:26.364Z,12.64
2023-01-15T17:10:01.069Z,12.65
2023-01-15T17:12:40.837Z,12.65
2023-01-15T17:15:20.757Z,12.61
2023-01-15T17:17:53.555Z,12.61
2023-01-15T17:20:28.300Z,12.60
2023-01-15T17:22:58.654Z,12.57
2023-01-15T17:25:34.498Z,12.58
2023-01-15T17:28:05.433Z,12.57
2023-01-15T17:30:36.371Z,12.56
2023-01-15T17:33:09.928Z,12.58
2023-01-15T17:35:48.999Z,12.55
2023-01-15T17:38:19.366Z,12.48
2023-01-15T17:40:53.761Z,12.45
2023-01-15T17:43:23.857Z,12.45
2023-01-15T17:45:55.518Z,12.47
2023-01-15T17:48:25.398Z,12.49
2023-01-15T17:50:56.497Z,12.51
2023-01-15T17:53:25.884Z,12.54
2023-01-15T17:56:14.727Z,12.55
2023-01-15T17:59:03.588Z,12.45
2023-01-15T18:02:06.977Z,12.40
2023-01-15T18:05:03.091Z,12.35
2023-01-15T18:07:39.825Z,12.32
2023-01-15T18:10:20.419Z,12.34
2023-01-15T18:12:53.403Z,12.36
2023-01-15T18:15:23.597Z,12.35
2023-01-15T18:17:53.760Z,12.30
2023-01-15T18:20:23.435Z,12.33
2023-01-15T18:22:52.699Z,12.37
2023-01-15T18:25:21.604Z,12.40
2023-01-15T18:27:51.753Z,12.43
2023-01-15T18:30:21.375Z,12.42
2023-01-15T18:32:50.386Z,12.40
2023-01-15T18:35:19.926Z,12.40
2023-01-15T18:37:49.070Z,12.43
2023-01-15T18:40:18.115Z,12.45
2023-01-15T18:43:05.914Z,12.48
2023-01-15T18:45:53.595Z,12.41
2023-01-15T18:48:22.927Z,12.33
2023-01-15T18:50:53.391Z,12.34
2023-01-15T18:53:23.699Z,12.37
2023-01-15T18:55:52.944Z,12.37
2023-01-15T18:58:21.885Z,12.40
2023-01-15T19:00:51.790Z,12.37
2023-01-15T19:03:21.354Z,12.35
2023-01-15T19:05:51.450Z,12.38
2023-01-15T19:08:21.416Z,12.41
2023-01-15T19:10:51.523Z,12.45
2023-01-15T19:13:20.684Z,12.42
2023-01-15T19:16:22.379Z,12.42
2023-01-15T19:18:55.151Z,12.38
2023-01-15T19:21:25.437Z,12.40
2023-01-15T19:23:55.489Z,12.43
2023-01-15T19:26:24.694Z,12.43
2023-01-15T19:28:53.922Z,12.44
2023-01-15T19:31:39.816Z,12.46
2023-01-15T19:34:33.221Z,12.44
2023-01-15T19:37:01.949Z,12.38
2023-01-15T19:39:32.396Z,12.37
2023-01-15T19:42:20.601Z,12.38
2023-01-15T19:45:09.543Z,12.36
2023-01-15T19:48:00.306Z,12.37
2023-01-15T19:50:35.881Z,12.36
2023-01-15T19:53:07.724Z,12.34
2023-01-15T19:55:39.599Z,12.37
2023-01-15T19:58:12.105Z,12.38
2023-01-15T20:00:44.814Z,12.39
2023-01-15T20:03:15.224Z,12.40
2023-01-15T20:05:47.869Z,12.39
2023-01-15T20:08:18.235Z,12.38
2023-01-15T20:10:51.423Z,12.37
2023-01-15T20:13:41.648Z,12.41
2023-01-15T20:16:18.722Z,12.42
2023-01-15T20:18:52.565Z,12.40
2023-01-15T20:21:23.828Z,12.38
2023-01-15T20:23:53.564Z,12.38
2023-01-15T20:26:25.368Z,12.41
2023-01-15T20:28:54.525Z,12.41
2023-01-15T20:31:24.062Z,12.36
2023-01-15T20:33:55.266Z,12.35
2023-01-15T20:36:24.674Z,12.36
2023-01-15T20:38:53.863Z,12.38
2023-01-15T20:41:42.131Z,12.39
2023-01-15T20:44:31.130Z,12.32
2023-01-15T20:47:21.687Z,12.27
2023-01-15T20:49:52.061Z,12.23
2023-01-15T20:52:22.112Z,12.25
2023-01-15T20:54:52.028Z,12.29
2023-01-15T20:57:21.212Z,12.28
2023-01-15T20:59:50.698Z,12.26
2023-01-15T21:02:20.026Z,12.25
2023-01-15T21:04:49.766Z,12.18
2023-01-15T21:07:19.758Z,12.14
2023-01-15T21:09:49.672Z,12.10
2023-01-15T21:12:19.196Z,12.05
2023-01-15T21:14:48.470Z,12.01
2023-01-15T21:17:18.911Z,11.97
2023-01-15T21:19:48.881Z,11.99
2023-01-15T21:22:18.798Z,11.97
2023-01-15T21:24:51.326Z,11.97
2023-01-15T21:27:20.538Z,11.96
2023-01-15T21:29:49.782Z,11.92
2023-01-15T21:32:19.147Z,11.90
2023-01-15T21:34:47.996Z,11.91
2023-01-15T21:37:17.947Z,11.91
2023-01-15T21:39:46.575Z,11.95
2023-01-15T21:42:40.289Z,11.97
2023-01-15T21:45:11.587Z,11.88
2023-01-15T21:47:42.186Z,11.90
2023-01-15T21:50:11.024Z,11.95
2023-01-15T21:52:40.122Z,11.97
2023-01-15T21:55:09.464Z,11.99
2023-01-15T21:57:38.726Z,11.97
2023-01-15T22:00:09.489Z,11.94
2023-01-15T22:02:39.614Z,11.91
2023-01-15T22:05:08.895Z,11.90
2023-01-15T22:07:38.323Z,11.84
2023-01-15T22:10:08.214Z,11.84
2023-01-15T22:12:42.688Z,11.80
2023-01-15T22:15:12.802Z,11.79
2023-01-15T22:17:42.893Z,11.78
2023-01-15T22:20:13.393Z,11.77
2023-01-15T22:22:42.811Z,11.78
2023-01-15T22:25:15.988Z,11.75
2023-01-15T22:27:45.134Z,11.70
2023-01-15T22:30:16.448Z,11.68
2023-01-15T22:32:46.030Z,11.66
2023-01-15T22:35:15.989Z,11.64
2023-01-15T22:37:45.080Z,11.60
2023-01-15T22:40:14.290Z,11.62
2023-01-15T22:42:44.451Z,11.60
2023-01-15T22:45:13.559Z,11.56
2023-01-15T22:47:42.720Z,11.55
2023-01-15T22:50:12.991Z,11.52
2023-01-15T22:52:42.627Z,11.46
2023-01-15T22:55:12.996Z,11.46
2023-01-15T22:57:42.303Z,11.47
2023-01-15T23:00:11.755Z,11.49
2023-01-15T23:02:56.489Z,11.54
2023-01-15T23:05:25.845Z,11.47
2023-01-15T23:07:55.973Z,11.46
2023-01-15T23:10:25.068Z,11.48
2023-01-15T23:12:54.634Z,11.48
2023-01-15T23:15:23.497Z,11.49
2023-01-15T23:17:52.584Z,11.51
2023-01-15T23:20:21.521Z,11.52
2023-01-15T23:22:50.917Z,11.53
2023-01-15T23:25:19.800Z,11.53
2023-01-15T23:27:49.243Z,11.54
2023-01-15T23:30:18.703Z,11.55
2023-01-15T23:32:47.521Z,11.55
2023-01-15T23:35:16.465Z,11.53
2023-01-15T23:37:45.445Z,11.48
2023-01-15T23:40:14.244Z,11.50
2023-01-15T23:43:02.175Z,11.51
2023-01-15T23:45:50.009Z,11.46
2023-01-15T23:48:20.466Z,11.40
2023-01-15T23:50:50.639Z,11.39
2023-01-15T23:53:19.233Z,11.40
2023-01-15T23:55:48.021Z,11.41
2023-01-15T23:58:16.905Z,11.42
